Terminal Aerodrome Forecast
Issued by NWS Flagstaff, AZ

Home | Current Version | Previous Version | Text Only | Print | Product List | Glossary On
Versions: 1 2 3 4 5 6 7 8 9 10 11 12 13 14
000
FTUS45 KFGZ 010528
TAFFLG
TAF
KFLG 010528Z 0106/0206 VRB05KT P6SM SCT110
     FM011800 23006KT P6SM SCT060 BKN090
      TEMPO 0119/0123 VRB10G20KT 4SM TSRA OVC050CB
     FM020200 VRB04KT P6SM SCT060 BKN090=

USA.gov is the U.S. government's official web portal to all federal, state and local government web resources and services.